createdAt,value
2018-09-05T00:01:02.259Z,17.70
2018-09-05T00:03:35.258Z,17.70
2018-09-05T00:06:07.940Z,17.60
2018-09-05T00:08:41.095Z,17.50
2018-09-05T00:11:14.324Z,17.40
2018-09-05T00:13:48.271Z,17.30
2018-09-05T00:16:21.460Z,17.30
2018-09-05T00:18:54.127Z,17.30
2018-09-05T00:21:27.475Z,17.40
2018-09-05T00:24:00.227Z,17.40
2018-09-05T00:26:33.162Z,17.40
2018-09-05T00:29:05.809Z,17.30
2018-09-05T00:31:39.037Z,17.30
2018-09-05T00:34:12.554Z,17.20
2018-09-05T00:36:45.004Z,17.20
2018-09-05T00:39:18.353Z,17.20
2018-09-05T00:41:52.345Z,17.20
2018-09-05T00:44:24.887Z,17.20
2018-09-05T00:46:57.498Z,17.20
2018-09-05T00:49:30.733Z,17.30
2018-09-05T00:52:03.288Z,17.20
2018-09-05T00:54:36.921Z,17.20
2018-09-05T00:57:10.499Z,17.20
2018-09-05T00:59:43.426Z,17.20
2018-09-05T01:02:16.483Z,17.30
2018-09-05T01:04:49.544Z,17.20
2018-09-05T01:07:26.435Z,17.20
2018-09-05T01:09:58.999Z,17.30
2018-09-05T01:12:32.242Z,17.30
2018-09-05T01:15:04.613Z,17.30
2018-09-05T01:17:41.005Z,17.30
2018-09-05T01:20:14.361Z,17.30
2018-09-05T01:22:48.608Z,17.30
2018-09-05T01:25:22.904Z,17.30
2018-09-05T01:27:55.450Z,17.20
2018-09-05T01:30:28.875Z,17.20
2018-09-05T01:33:01.796Z,17.20
2018-09-05T01:35:34.113Z,17.20
2018-09-05T01:38:06.695Z,17.10
2018-09-05T01:40:39.413Z,17.10
2018-09-05T01:43:12.173Z,17.10
2018-09-05T01:45:45.235Z,17.10
2018-09-05T01:48:18.112Z,17.10
2018-09-05T01:50:50.862Z,17.10
2018-09-05T01:53:23.631Z,17.00
2018-09-05T01:55:56.052Z,17.00
2018-09-05T01:58:28.364Z,17.00
2018-09-05T02:01:01.769Z,17.00
2018-09-05T02:03:34.591Z,17.10
2018-09-05T02:06:06.941Z,16.90
2018-09-05T02:08:39.912Z,16.90
2018-09-05T02:11:12.303Z,16.80
2018-09-05T02:13:44.952Z,16.80
2018-09-05T02:16:18.737Z,16.80
2018-09-05T02:18:51.498Z,16.80
2018-09-05T02:21:24.022Z,16.80
2018-09-05T02:23:56.613Z,16.90
2018-09-05T02:26:28.702Z,16.90
2018-09-05T02:29:01.355Z,16.80
2018-09-05T02:31:34.396Z,16.80
2018-09-05T02:34:06.841Z,16.80
2018-09-05T02:36:38.980Z,16.80
2018-09-05T02:39:12.035Z,16.90
2018-09-05T02:41:46.220Z,16.80
2018-09-05T02:44:22.187Z,16.80
2018-09-05T02:46:55.048Z,16.80
2018-09-05T02:49:27.205Z,16.70
2018-09-05T02:51:59.289Z,16.70
2018-09-05T02:54:31.592Z,16.80
2018-09-05T02:57:04.523Z,16.80
2018-09-05T02:59:37.151Z,16.80
2018-09-05T03:02:09.251Z,16.90
2018-09-05T03:04:41.614Z,16.80
2018-09-05T03:07:14.459Z,16.70
2018-09-05T03:09:47.384Z,16.60
2018-09-05T03:12:23.071Z,16.60
2018-09-05T03:14:55.817Z,16.60
2018-09-05T03:17:28.266Z,16.60
2018-09-05T03:20:00.634Z,16.50
2018-09-05T03:22:33.064Z,16.40
2018-09-05T03:25:05.579Z,16.40
2018-09-05T03:27:38.829Z,16.40
2018-09-05T03:30:12.209Z,16.40
2018-09-05T03:32:45.354Z,16.40
2018-09-05T03:35:18.322Z,16.40
2018-09-05T03:37:50.314Z,16.40
2018-09-05T03:40:22.482Z,16.40
2018-09-05T03:42:55.576Z,16.30
2018-09-05T03:45:27.910Z,16.30
2018-09-05T03:48:00.970Z,16.30
2018-09-05T03:50:33.815Z,16.40
2018-09-05T03:53:06.225Z,16.40
2018-09-05T03:55:38.758Z,16.40
2018-09-05T03:58:12.027Z,16.50
2018-09-05T04:00:44.240Z,16.50
2018-09-05T04:03:17.941Z,16.50
2018-09-05T04:05:50.332Z,16.50
2018-09-05T04:08:22.811Z,16.50
2018-09-05T04:10:55.515Z,16.40
2018-09-05T04:13:27.840Z,16.40
2018-09-05T04:16:00.143Z,16.40
2018-09-05T04:18:33.658Z,16.40
2018-09-05T04:21:06.425Z,16.40
2018-09-05T04:23:46.206Z,16.40
2018-09-05T04:26:19.775Z,16.40
2018-09-05T04:28:52.673Z,16.40
2018-09-05T04:31:25.002Z,16.40
2018-09-05T04:33:57.760Z,16.50
2018-09-05T04:36:30.456Z,16.50
2018-09-05T04:39:03.737Z,16.50
2018-09-05T04:41:35.852Z,16.50
2018-09-05T04:44:08.813Z,16.50
2018-09-05T04:46:42.276Z,16.50
2018-09-05T04:49:14.892Z,16.60
2018-09-05T04:51:47.780Z,16.50
2018-09-05T04:54:20.604Z,16.50
2018-09-05T04:56:53.324Z,16.50
2018-09-05T04:59:25.387Z,16.50
2018-09-05T05:01:57.392Z,16.50
2018-09-05T05:04:29.340Z,16.50
2018-09-05T05:07:01.766Z,16.50
2018-09-05T05:09:33.902Z,16.60
2018-09-05T05:12:05.843Z,16.50
2018-09-05T05:14:38.092Z,16.50
2018-09-05T05:17:10.694Z,16.50
2018-09-05T05:19:43.046Z,16.50
2018-09-05T05:22:15.763Z,16.60
2018-09-05T05:24:47.645Z,16.60
2018-09-05T05:27:20.281Z,16.70
2018-09-05T05:29:52.525Z,16.70
2018-09-05T05:32:24.948Z,16.80
2018-09-05T05:35:00.053Z,17.10
2018-09-05T05:37:32.335Z,17.30
2018-09-05T05:40:06.835Z,17.60
2018-09-05T05:42:39.168Z,17.70
2018-09-05T05:45:11.549Z,17.80
2018-09-05T05:47:43.619Z,18.00
2018-09-05T05:50:15.935Z,18.10
2018-09-05T05:52:48.419Z,18.10
2018-09-05T05:55:21.122Z,18.40
2018-09-05T05:57:53.690Z,18.40
2018-09-05T06:00:27.170Z,18.60
2018-09-05T06:02:59.248Z,18.70
2018-09-05T06:05:32.027Z,18.80
2018-09-05T06:08:04.340Z,18.80
2018-09-05T06:10:36.587Z,19.00
2018-09-05T06:13:08.879Z,19.30
2018-09-05T06:15:41.677Z,19.60
2018-09-05T06:18:14.017Z,20.00
2018-09-05T06:20:46.193Z,20.40
2018-09-05T06:23:18.454Z,20.70
2018-09-05T06:25:50.935Z,20.80
2018-09-05T06:28:22.916Z,20.80
2018-09-05T06:30:55.752Z,20.60
2018-09-05T06:33:28.085Z,20.30
2018-09-05T06:36:00.537Z,20.10
2018-09-05T06:38:32.532Z,20.10
2018-09-05T06:41:04.638Z,20.20
2018-09-05T06:43:37.032Z,20.40
2018-09-05T06:46:08.790Z,20.60
2018-09-05T06:48:41.301Z,20.90
2018-09-05T06:51:13.302Z,21.00
2018-09-05T06:53:45.448Z,21.00
2018-09-05T06:56:17.921Z,21.20
2018-09-05T06:58:49.839Z,21.30
2018-09-05T07:01:21.789Z,21.40
2018-09-05T07:03:54.417Z,21.40
2018-09-05T07:06:26.584Z,21.40
2018-09-05T07:08:58.937Z,21.30
2018-09-05T07:11:32.160Z,21.20
2018-09-05T07:14:05.333Z,21.10
2018-09-05T07:16:38.416Z,21.10
2018-09-05T07:19:11.828Z,21.20
2018-09-05T07:21:44.142Z,21.10
2018-09-05T07:24:16.290Z,21.10
2018-09-05T07:26:48.431Z,21.30
2018-09-05T07:29:20.611Z,21.40
2018-09-05T07:31:53.072Z,21.60
2018-09-05T07:34:25.150Z,21.60
2018-09-05T07:36:57.526Z,21.70
2018-09-05T07:39:29.750Z,21.70
2018-09-05T07:42:01.908Z,21.80
2018-09-05T07:44:34.425Z,21.80
2018-09-05T07:47:06.672Z,21.80
2018-09-05T07:49:39.537Z,21.90
2018-09-05T07:52:11.929Z,21.90
2018-09-05T07:54:44.306Z,22.00
2018-09-05T07:57:16.410Z,22.10
2018-09-05T07:59:49.537Z,22.10
2018-09-05T08:02:21.524Z,22.30
2018-09-05T08:04:54.200Z,22.40
2018-09-05T08:07:26.739Z,22.50
2018-09-05T08:09:58.686Z,22.60
2018-09-05T08:12:31.769Z,22.70
2018-09-05T08:15:04.302Z,22.70
2018-09-05T08:17:36.589Z,22.50
2018-09-05T08:20:09.002Z,22.50
2018-09-05T08:22:41.343Z,22.60
2018-09-05T08:25:13.928Z,22.80
2018-09-05T08:27:47.455Z,23.10
2018-09-05T08:30:20.166Z,23.30
2018-09-05T08:32:53.442Z,23.40
2018-09-05T08:35:26.166Z,23.40
2018-09-05T08:37:58.500Z,23.60
2018-09-05T08:40:30.492Z,23.70
2018-09-05T08:43:03.299Z,23.70
2018-09-05T08:45:36.009Z,23.50
2018-09-05T08:48:08.125Z,23.40
2018-09-05T08:50:40.336Z,23.30
2018-09-05T08:53:12.391Z,23.30
2018-09-05T08:55:45.253Z,23.40
2018-09-05T08:58:17.342Z,23.60
2018-09-05T09:00:49.675Z,23.70
2018-09-05T09:03:21.853Z,23.70
2018-09-05T09:05:54.089Z,23.80
2018-09-05T09:08:26.376Z,24.00
2018-09-05T09:10:58.587Z,24.30
2018-09-05T09:13:31.131Z,24.60
2018-09-05T09:16:02.948Z,24.90
2018-09-05T09:18:35.503Z,25.10
2018-09-05T09:21:07.796Z,24.90
2018-09-05T09:23:39.907Z,24.70
2018-09-05T09:26:12.148Z,24.40
2018-09-05T09:28:44.735Z,24.30
2018-09-05T09:31:17.015Z,24.20
2018-09-05T09:33:49.039Z,24.00
2018-09-05T09:36:20.819Z,24.00
2018-09-05T09:38:53.108Z,24.00
2018-09-05T09:41:25.347Z,24.10
2018-09-05T09:43:57.413Z,24.20
2018-09-05T09:46:29.604Z,24.30
2018-09-05T09:49:01.628Z,24.30
2018-09-05T09:51:33.658Z,24.20
2018-09-05T09:54:05.997Z,24.30
2018-09-05T09:56:38.615Z,24.50
2018-09-05T09:59:10.788Z,24.50
2018-09-05T10:01:47.671Z,24.60
2018-09-05T10:04:24.713Z,24.60
2018-09-05T10:07:01.821Z,24.80
2018-09-05T10:09:38.592Z,24.90
2018-09-05T10:12:15.307Z,24.90
2018-09-05T10:15:07.500Z,24.80
2018-09-05T10:17:39.692Z,24.80
2018-09-05T10:20:11.636Z,24.70
2018-09-05T10:22:45.605Z,24.70
2018-09-05T10:25:18.120Z,24.90
2018-09-05T10:27:50.458Z,25.00
2018-09-05T10:30:22.108Z,25.10
2018-09-05T10:32:54.362Z,25.30
2018-09-05T10:35:26.557Z,25.30
2018-09-05T10:37:58.790Z,25.10
2018-09-05T10:40:30.971Z,25.10
2018-09-05T10:43:03.069Z,25.10
2018-09-05T10:45:35.235Z,25.10
2018-09-05T10:48:10.195Z,25.10
2018-09-05T10:50:42.340Z,25.10
2018-09-05T10:53:14.244Z,25.00
2018-09-05T10:55:46.400Z,25.10
2018-09-05T10:58:18.391Z,25.20
2018-09-05T11:00:50.330Z,25.50
2018-09-05T11:03:22.301Z,25.80
2018-09-05T11:05:54.515Z,25.60
2018-09-05T11:08:26.586Z,25.40
2018-09-05T11:10:58.515Z,25.30
2018-09-05T11:13:30.715Z,25.30
2018-09-05T11:16:03.034Z,25.10
2018-09-05T11:18:35.048Z,25.00
2018-09-05T11:21:07.537Z,25.20
2018-09-05T11:23:39.709Z,25.50
2018-09-05T11:26:11.816Z,25.70
2018-09-05T11:28:44.144Z,25.70
2018-09-05T11:31:17.193Z,25.60
2018-09-05T11:33:49.634Z,25.60
2018-09-05T11:36:21.977Z,25.60
2018-09-05T11:38:54.051Z,25.70
2018-09-05T11:41:26.527Z,25.80
2018-09-05T11:43:59.705Z,25.70
2018-09-05T11:46:31.944Z,25.80
2018-09-05T11:49:04.186Z,25.90
2018-09-05T11:51:36.296Z,26.10
2018-09-05T11:54:09.594Z,26.10
2018-09-05T11:56:41.753Z,26.20
2018-09-05T11:59:13.765Z,26.20
2018-09-05T12:01:45.314Z,26.30
2018-09-05T12:04:17.545Z,26.30
2018-09-05T12:06:49.879Z,26.10
2018-09-05T12:09:21.955Z,26.10
2018-09-05T12:11:53.762Z,26.10
2018-09-05T12:14:25.911Z,26.00
2018-09-05T12:16:57.839Z,26.00
2018-09-05T12:19:29.731Z,25.90
2018-09-05T12:22:02.231Z,25.90
2018-09-05T12:24:34.104Z,25.90
2018-09-05T12:27:07.829Z,25.90
2018-09-05T12:29:39.741Z,25.80
2018-09-05T12:32:11.850Z,25.80
2018-09-05T12:34:44.450Z,25.70
2018-09-05T12:37:16.547Z,25.60
2018-09-05T12:39:49.050Z,25.60
2018-09-05T12:42:20.892Z,25.70
2018-09-05T12:44:52.964Z,25.60
2018-09-05T12:47:25.023Z,25.50
2018-09-05T12:49:57.116Z,25.50
2018-09-05T12:52:29.181Z,25.50
2018-09-05T12:55:01.289Z,25.60
2018-09-05T12:57:33.703Z,25.50
2018-09-05T13:00:06.080Z,25.50
2018-09-05T13:02:38.503Z,25.40
2018-09-05T13:05:10.852Z,25.50
2018-09-05T13:07:42.945Z,25.50
2018-09-05T13:10:14.956Z,25.50
2018-09-05T13:12:47.629Z,25.60
2018-09-05T13:15:19.556Z,25.60
2018-09-05T13:17:51.844Z,25.60
2018-09-05T13:20:24.345Z,25.60
2018-09-05T13:22:56.979Z,25.50
2018-09-05T13:25:29.269Z,25.60
2018-09-05T13:28:01.961Z,25.60
2018-09-05T13:30:34.474Z,25.30
2018-09-05T13:33:06.787Z,24.90
2018-09-05T13:35:39.045Z,24.60
2018-09-05T13:38:11.529Z,24.30
2018-09-05T13:40:43.496Z,24.00
2018-09-05T13:43:15.576Z,23.60
2018-09-05T13:45:47.843Z,23.40
2018-09-05T13:48:19.966Z,23.20
2018-09-05T13:50:53.075Z,23.00
2018-09-05T13:53:25.676Z,22.90
2018-09-05T13:55:57.879Z,22.80
2018-09-05T13:58:30.619Z,22.80
2018-09-05T14:01:02.705Z,22.80
2018-09-05T14:03:34.935Z,22.80
2018-09-05T14:06:07.515Z,22.70
2018-09-05T14:08:40.860Z,22.60
2018-09-05T14:11:13.169Z,22.60
2018-09-05T14:13:45.384Z,22.50
2018-09-05T14:16:17.712Z,22.50
2018-09-05T14:18:50.673Z,22.50
2018-09-05T14:21:22.864Z,22.50
2018-09-05T14:23:54.938Z,22.40
2018-09-05T14:26:27.163Z,22.40
2018-09-05T14:28:59.774Z,22.40
2018-09-05T14:31:32.063Z,22.40
2018-09-05T14:34:04.446Z,22.40
2018-09-05T14:36:37.189Z,22.30
2018-09-05T14:39:12.855Z,22.20
2018-09-05T14:41:45.328Z,22.10
2018-09-05T14:44:17.853Z,22.20
2018-09-05T14:46:50.183Z,22.10
2018-09-05T14:49:22.319Z,22.10
2018-09-05T14:51:54.686Z,22.00
2018-09-05T14:54:26.993Z,21.90
2018-09-05T14:56:59.703Z,21.80
2018-09-05T14:59:33.293Z,21.70
2018-09-05T15:02:05.473Z,21.60
2018-09-05T15:04:37.703Z,21.50
2018-09-05T15:07:14.643Z,21.40
2018-09-05T15:09:47.165Z,21.30
2018-09-05T15:12:19.333Z,21.20
2018-09-05T15:14:51.532Z,21.10
2018-09-05T15:17:23.999Z,21.10
2018-09-05T15:19:56.123Z,21.10
2018-09-05T15:22:28.132Z,21.10
2018-09-05T15:25:00.455Z,21.00
2018-09-05T15:27:32.782Z,21.00
2018-09-05T15:30:04.941Z,21.00
2018-09-05T15:32:38.425Z,21.00
2018-09-05T15:35:10.683Z,21.00
2018-09-05T15:37:42.739Z,20.90
2018-09-05T15:40:14.907Z,20.90
2018-09-05T15:42:46.808Z,20.90
2018-09-05T15:45:19.083Z,20.90
2018-09-05T15:47:51.019Z,20.90
2018-09-05T15:50:23.587Z,20.80
2018-09-05T15:52:55.931Z,20.80
2018-09-05T15:55:28.577Z,20.80
2018-09-05T15:58:01.938Z,20.80
2018-09-05T16:00:34.232Z,20.80
2018-09-05T16:03:06.538Z,20.70
2018-09-05T16:05:39.082Z,20.70
2018-09-05T16:08:11.789Z,20.70
2018-09-05T16:10:44.026Z,20.80
2018-09-05T16:13:17.491Z,20.70
2018-09-05T16:15:50.070Z,20.70
2018-09-05T16:18:22.417Z,20.70
2018-09-05T16:20:54.549Z,20.70
2018-09-05T16:23:27.713Z,20.70
2018-09-05T16:26:00.068Z,20.60
2018-09-05T16:28:32.441Z,20.60
2018-09-05T16:31:04.960Z,20.60
2018-09-05T16:33:37.370Z,20.60
2018-09-05T16:36:10.157Z,20.50
2018-09-05T16:38:42.677Z,20.40
2018-09-05T16:41:15.006Z,20.30
2018-09-05T16:43:48.233Z,20.30
2018-09-05T16:46:20.321Z,20.20
2018-09-05T16:48:52.655Z,20.10
2018-09-05T16:51:25.067Z,20.00
2018-09-05T16:53:57.836Z,20.00
2018-09-05T16:56:31.544Z,19.90
2018-09-05T16:59:04.171Z,19.90
2018-09-05T17:01:36.712Z,19.80
2018-09-05T17:04:09.088Z,19.80
2018-09-05T17:06:42.008Z,19.80
2018-09-05T17:09:14.516Z,19.70
2018-09-05T17:11:47.158Z,19.70
2018-09-05T17:14:20.427Z,19.70
2018-09-05T17:16:52.977Z,19.70
2018-09-05T17:19:25.376Z,19.70
2018-09-05T17:21:57.606Z,19.60
2018-09-05T17:24:30.128Z,19.60
2018-09-05T17:27:02.438Z,19.60
2018-09-05T17:29:35.861Z,19.50
2018-09-05T17:32:08.040Z,19.50
2018-09-05T17:34:40.365Z,19.50
2018-09-05T17:37:12.539Z,19.40
2018-09-05T17:39:44.690Z,19.40
2018-09-05T17:42:17.171Z,19.40
2018-09-05T17:44:49.514Z,19.40
2018-09-05T17:47:21.606Z,19.40
2018-09-05T17:49:53.750Z,19.40
2018-09-05T17:52:25.759Z,19.40
2018-09-05T17:54:57.941Z,19.40
2018-09-05T17:57:29.931Z,19.40
2018-09-05T18:00:02.126Z,19.40
2018-09-05T18:02:34.617Z,19.50
2018-09-05T18:05:06.966Z,19.40
2018-09-05T18:07:39.359Z,19.40
2018-09-05T18:10:11.697Z,19.30
2018-09-05T18:12:43.873Z,19.30
2018-09-05T18:15:16.081Z,19.30
2018-09-05T18:17:48.339Z,19.30
2018-09-05T18:20:20.696Z,19.20
2018-09-05T18:22:53.157Z,19.10
2018-09-05T18:25:26.203Z,19.10
2018-09-05T18:27:58.936Z,19.00
2018-09-05T18:30:32.521Z,19.00
2018-09-05T18:33:05.134Z,18.90
2018-09-05T18:35:37.365Z,18.90
2018-09-05T18:38:09.613Z,18.80
2018-09-05T18:40:42.067Z,18.70
2018-09-05T18:43:14.132Z,18.70
2018-09-05T18:45:46.274Z,18.60
2018-09-05T18:48:18.514Z,18.60
2018-09-05T18:50:50.767Z,18.50
2018-09-05T18:53:23.138Z,18.50
2018-09-05T18:55:55.653Z,18.50
2018-09-05T18:58:27.866Z,18.40
2018-09-05T19:01:00.050Z,18.50
2018-09-05T19:03:32.360Z,18.40
2018-09-05T19:06:04.631Z,18.40
2018-09-05T19:11:15.175Z,18.20
2018-09-05T19:13:47.931Z,18.20
2018-09-05T19:16:20.273Z,18.20
2018-09-05T19:18:52.593Z,18.20
2018-09-05T19:21:26.887Z,18.20
2018-09-05T19:23:59.365Z,18.30
2018-09-05T19:26:31.796Z,18.20
2018-09-05T19:29:05.411Z,18.20
2018-09-05T19:31:38.092Z,18.20
2018-09-05T19:34:10.466Z,18.20
2018-09-05T19:36:43.118Z,18.10
2018-09-05T19:39:15.679Z,18.10
2018-09-05T19:41:47.849Z,18.10
2018-09-05T19:44:20.635Z,18.00
2018-09-05T19:46:53.131Z,18.00
2018-09-05T19:49:25.412Z,18.00
2018-09-05T19:51:57.869Z,18.00
2018-09-05T19:54:30.829Z,18.00
2018-09-05T19:57:02.885Z,18.00
2018-09-05T19:59:35.515Z,18.00
2018-09-05T20:02:08.423Z,18.00
2018-09-05T20:04:40.492Z,18.00
2018-09-05T20:07:13.770Z,18.00
2018-09-05T20:09:46.914Z,18.10
2018-09-05T20:12:19.384Z,18.10
2018-09-05T20:14:51.472Z,18.00
2018-09-05T20:17:23.622Z,18.00
2018-09-05T20:19:56.129Z,18.10
2018-09-05T20:22:29.282Z,18.10
2018-09-05T20:25:01.473Z,18.10
2018-09-05T20:27:33.788Z,18.00
2018-09-05T20:30:06.002Z,18.00
2018-09-05T20:32:38.376Z,18.00
2018-09-05T20:35:10.819Z,17.90
2018-09-05T20:37:43.167Z,17.90
2018-09-05T20:40:15.067Z,17.90
2018-09-05T20:42:47.270Z,17.90
2018-09-05T20:45:19.385Z,17.90
2018-09-05T20:47:51.507Z,17.90
2018-09-05T20:50:23.883Z,18.00
2018-09-05T20:52:55.996Z,18.00
2018-09-05T20:55:28.718Z,17.90
2018-09-05T20:58:01.587Z,17.80
2018-09-05T21:00:33.477Z,17.80
2018-09-05T21:03:05.497Z,17.70
2018-09-05T21:05:37.756Z,17.80
2018-09-05T21:08:09.725Z,17.80
2018-09-05T21:10:41.526Z,17.80
2018-09-05T21:13:13.903Z,17.80
2018-09-05T21:15:45.948Z,17.80
2018-09-05T21:18:18.338Z,17.70
2018-09-05T21:20:51.425Z,17.60
2018-09-05T21:23:23.273Z,17.60
2018-09-05T21:25:55.014Z,17.60
2018-09-05T21:28:26.934Z,17.60
2018-09-05T21:30:59.142Z,17.60
2018-09-05T21:33:31.353Z,17.60
2018-09-05T21:36:03.627Z,17.60
2018-09-05T21:38:35.854Z,17.60
2018-09-05T21:41:09.788Z,17.60
2018-09-05T21:43:41.967Z,17.70
2018-09-05T21:46:14.275Z,17.70
2018-09-05T21:48:46.737Z,17.70
2018-09-05T21:51:19.973Z,17.70
2018-09-05T21:53:51.922Z,17.60
2018-09-05T21:56:24.021Z,17.60
2018-09-05T21:58:56.896Z,17.50
2018-09-05T22:01:29.003Z,17.50
2018-09-05T22:04:01.313Z,17.50
2018-09-05T22:06:33.261Z,17.40
2018-09-05T22:09:07.006Z,17.40
2018-09-05T22:11:39.192Z,17.30
2018-09-05T22:14:13.645Z,17.30
2018-09-05T22:16:45.939Z,17.30
2018-09-05T22:19:17.969Z,17.30
2018-09-05T22:21:49.928Z,17.30
2018-09-05T22:24:21.731Z,17.30
2018-09-05T22:26:53.847Z,17.30
2018-09-05T22:29:25.864Z,17.20
2018-09-05T22:31:57.865Z,17.20
2018-09-05T22:34:29.773Z,17.20
2018-09-05T22:37:01.785Z,17.20
2018-09-05T22:39:33.831Z,17.10
2018-09-05T22:42:06.887Z,17.00
2018-09-05T22:44:56.737Z,16.90
2018-09-05T22:48:47.194Z,16.90
2018-09-05T22:53:50.529Z,16.90
2018-09-05T22:56:48.681Z,16.90
2018-09-05T23:01:47.686Z,17.00
2018-09-05T23:09:54.102Z,17.00
2018-09-05T23:12:42.256Z,17.00
2018-09-05T23:17:31.773Z,17.00
2018-09-05T23:20:27.421Z,16.90
2018-09-05T23:23:15.457Z,16.90
2018-09-05T23:25:47.153Z,16.90
2018-09-05T23:28:20.009Z,16.90
2018-09-05T23:30:51.894Z,17.00
2018-09-05T23:33:23.821Z,16.80
2018-09-05T23:35:55.574Z,16.70
2018-09-05T23:38:27.466Z,16.50
2018-09-05T23:40:59.499Z,16.40
2018-09-05T23:43:31.578Z,16.30
2018-09-05T23:46:03.575Z,16.30
2018-09-05T23:48:35.550Z,16.20
2018-09-05T23:51:08.417Z,16.00
2018-09-05T23:53:40.414Z,15.90
2018-09-05T23:56:12.569Z,15.90
2018-09-05T23:58:44.578Z,15.80
